createdAt,value
2023-04-14T00:01:18.666Z,7.00
2023-04-14T00:04:04.540Z,6.90
2023-04-14T00:06:51.414Z,6.80
2023-04-14T00:09:36.901Z,6.70
2023-04-14T00:12:27.217Z,6.60
2023-04-14T00:15:12.988Z,6.60
2023-04-14T00:17:58.665Z,6.70
2023-04-14T00:20:43.869Z,6.70
2023-04-14T00:23:29.269Z,6.70
2023-04-14T00:26:14.684Z,6.70
2023-04-14T00:29:02.946Z,6.70
2023-04-14T00:31:48.894Z,6.70
2023-04-14T00:34:34.476Z,6.80
2023-04-14T00:37:19.781Z,6.80
2023-04-14T00:40:07.340Z,6.70
2023-04-14T00:42:53.192Z,6.70
2023-04-14T00:45:49.451Z,6.70
2023-04-14T00:48:35.388Z,6.70
2023-04-14T00:51:20.861Z,6.60
2023-04-14T00:54:07.689Z,6.60
2023-04-14T00:56:54.350Z,6.60
2023-04-14T00:59:40.860Z,6.60
2023-04-14T01:02:26.337Z,6.70
2023-04-14T01:05:12.152Z,6.70
2023-04-14T01:07:58.093Z,6.70
2023-04-14T01:10:57.885Z,6.70
2023-04-14T01:14:02.385Z,6.70
2023-04-14T01:16:50.221Z,6.60
2023-04-14T01:20:30.669Z,6.70
2023-04-14T01:23:26.912Z,6.70
2023-04-14T01:26:26.374Z,6.70
2023-04-14T01:29:24.882Z,6.70
2023-04-14T01:32:14.714Z,6.60
2023-04-14T01:35:21.079Z,6.60
2023-04-14T01:38:14.960Z,6.60
2023-04-14T01:41:11.248Z,6.50
2023-04-14T01:44:01.716Z,6.40
2023-04-14T01:46:50.248Z,6.40
2023-04-14T01:49:39.339Z,6.40
2023-04-14T01:52:26.604Z,6.30
2023-04-14T01:55:26.429Z,6.40
2023-04-14T01:58:15.678Z,6.40
2023-04-14T02:01:01.006Z,6.30
2023-04-14T02:03:49.368Z,6.30
2023-04-14T02:06:38.598Z,6.30
2023-04-14T02:09:27.983Z,6.30
2023-04-14T02:12:13.898Z,6.40
2023-04-14T02:15:01.389Z,6.30
2023-04-14T02:17:51.570Z,6.30
2023-04-14T02:20:43.282Z,6.30
2023-04-14T02:23:29.382Z,6.30
2023-04-14T02:26:18.879Z,6.40
2023-04-14T02:29:12.152Z,6.40
2023-04-14T02:32:02.628Z,6.40
2023-04-14T02:35:04.765Z,6.40
2023-04-14T02:37:56.417Z,6.40
2023-04-14T02:40:51.199Z,6.40
2023-04-14T02:43:43.242Z,6.40
2023-04-14T02:46:33.354Z,6.40
2023-04-14T02:49:20.265Z,6.40
2023-04-14T02:52:08.499Z,6.40
2023-04-14T02:54:56.177Z,6.40
2023-04-14T02:57:42.625Z,6.40
2023-04-14T03:00:28.901Z,6.30
2023-04-14T03:03:18.796Z,6.30
2023-04-14T03:06:07.199Z,6.20
2023-04-14T03:08:54.938Z,6.10
2023-04-14T03:11:45.863Z,6.10
2023-04-14T03:14:38.710Z,6.10
2023-04-14T03:17:24.852Z,6.10
2023-04-14T03:20:12.631Z,6.10
2023-04-14T03:23:05.173Z,6.10
2023-04-14T03:25:56.666Z,6.10
2023-04-14T03:28:50.786Z,6.10
2023-04-14T03:31:38.047Z,6.10
2023-04-14T03:34:28.663Z,6.00
2023-04-14T03:37:28.597Z,5.90
2023-04-14T03:40:16.348Z,5.80
2023-04-14T03:43:09.717Z,5.80
2023-04-14T03:45:57.565Z,5.70
2023-04-14T03:48:46.548Z,5.60
2023-04-14T03:51:36.143Z,5.60
2023-04-14T03:54:27.894Z,5.50
2023-04-14T03:57:17.794Z,5.50
2023-04-14T04:00:08.686Z,5.50
2023-04-14T04:03:01.679Z,5.50
2023-04-14T04:05:48.213Z,5.50
2023-04-14T04:08:36.382Z,5.40
2023-04-14T04:11:23.926Z,5.40
2023-04-14T04:14:12.433Z,5.30
2023-04-14T04:17:06.704Z,5.30
2023-04-14T04:19:58.951Z,5.20
2023-04-14T04:22:45.553Z,5.20
2023-04-14T04:25:33.006Z,5.10
2023-04-14T04:28:24.822Z,5.10
2023-04-14T04:31:11.509Z,5.10
2023-04-14T04:33:58.166Z,5.10
2023-04-14T04:36:44.946Z,5.00
2023-04-14T04:39:31.038Z,5.00
2023-04-14T04:42:17.544Z,5.00
2023-04-14T04:45:03.040Z,4.90
2023-04-14T04:47:48.776Z,4.90
2023-04-14T04:50:33.854Z,4.90
2023-04-14T04:53:19.395Z,4.90
2023-04-14T04:56:07.872Z,4.90
2023-04-14T04:58:53.864Z,4.90
2023-04-14T05:01:39.296Z,4.80
2023-04-14T05:04:25.103Z,4.90
2023-04-14T05:07:10.376Z,4.90
2023-04-14T05:09:56.034Z,4.90
2023-04-14T05:12:41.530Z,4.90
2023-04-14T05:15:27.047Z,4.90
2023-04-14T05:18:13.120Z,4.90
2023-04-14T05:21:06.987Z,4.90
2023-04-14T05:23:52.561Z,5.00
2023-04-14T05:26:57.725Z,5.00
2023-04-14T05:29:43.547Z,5.10
2023-04-14T05:32:29.312Z,5.10
2023-04-14T05:35:14.845Z,5.10
2023-04-14T05:38:00.187Z,5.20
2023-04-14T05:40:49.916Z,5.20
2023-04-14T05:43:36.464Z,5.20
2023-04-14T05:46:22.251Z,5.30
2023-04-14T05:49:07.693Z,5.30
2023-04-14T05:51:56.130Z,5.40
2023-04-14T05:54:43.208Z,5.40
2023-04-14T05:57:34.973Z,5.50
2023-04-14T06:00:20.321Z,5.50
2023-04-14T06:03:05.982Z,5.60
2023-04-14T06:05:53.182Z,5.60
2023-04-14T06:08:38.746Z,5.70
2023-04-14T06:11:25.155Z,5.80
2023-04-14T06:14:10.907Z,5.80
2023-04-14T06:16:56.309Z,5.90
2023-04-14T06:19:41.907Z,6.00
2023-04-14T06:22:31.336Z,6.10
2023-04-14T06:25:17.078Z,6.10
2023-04-14T06:28:03.602Z,6.20
2023-04-14T06:30:49.200Z,6.30
2023-04-14T06:33:37.559Z,6.40
2023-04-14T06:36:25.837Z,6.40
2023-04-14T06:39:12.520Z,6.50
2023-04-14T06:41:58.564Z,6.60
2023-04-14T06:44:43.886Z,6.60
2023-04-14T06:47:29.666Z,6.70
2023-04-14T06:50:15.179Z,6.80
2023-04-14T06:53:00.680Z,6.80
2023-04-14T06:55:46.216Z,6.90
2023-04-14T06:58:31.988Z,7.00
2023-04-14T07:01:17.586Z,7.10
2023-04-14T07:04:07.455Z,7.20
2023-04-14T07:06:53.679Z,7.20
2023-04-14T07:09:38.925Z,7.40
2023-04-14T07:12:27.391Z,7.50
2023-04-14T07:15:14.301Z,7.60
2023-04-14T07:18:00.130Z,7.70
2023-04-14T07:20:45.626Z,7.80
2023-04-14T07:23:31.134Z,7.90
2023-04-14T07:26:16.479Z,8.10
2023-04-14T07:29:02.026Z,8.20
2023-04-14T07:31:47.663Z,8.40
2023-04-14T07:34:33.765Z,8.50
2023-04-14T07:37:19.388Z,8.70
2023-04-14T07:40:05.650Z,8.80
2023-04-14T07:42:51.453Z,8.90
2023-04-14T07:45:37.297Z,9.00
2023-04-14T07:48:23.010Z,9.10
2023-04-14T07:51:08.597Z,9.20
2023-04-14T07:53:53.947Z,9.30
2023-04-14T07:56:39.556Z,9.40
2023-04-14T07:59:25.249Z,9.50
2023-04-14T08:02:10.523Z,9.50
2023-04-14T08:04:56.846Z,9.60
2023-04-14T08:07:42.285Z,9.70
2023-04-14T08:10:27.960Z,9.80
2023-04-14T08:13:13.274Z,9.80
2023-04-14T08:15:58.897Z,9.90
2023-04-14T08:18:45.347Z,10.10
2023-04-14T08:21:30.918Z,10.20
2023-04-14T08:24:19.014Z,10.40
2023-04-14T08:27:05.162Z,10.50
2023-04-14T08:29:51.685Z,10.50
2023-04-14T08:32:43.104Z,10.60
2023-04-14T08:35:39.149Z,10.60
2023-04-14T08:38:29.890Z,10.60
2023-04-14T08:41:18.713Z,10.80
2023-04-14T08:44:04.125Z,10.90
2023-04-14T08:46:55.179Z,11.00
2023-04-14T08:49:45.777Z,11.00
2023-04-14T08:52:35.369Z,11.10
2023-04-14T08:55:24.036Z,11.00
2023-04-14T08:58:12.463Z,11.10
2023-04-14T09:00:58.540Z,11.10
2023-04-14T09:03:44.817Z,11.10
2023-04-14T09:06:34.416Z,11.20
2023-04-14T09:09:21.337Z,11.20
2023-04-14T09:12:09.733Z,11.30
2023-04-14T09:14:58.325Z,11.40
2023-04-14T09:17:44.162Z,11.50
2023-04-14T09:20:37.751Z,11.60
2023-04-14T09:23:27.596Z,11.70
2023-04-14T09:26:13.663Z,11.80
2023-04-14T09:29:00.873Z,11.90
2023-04-14T09:31:47.370Z,12.00
2023-04-14T09:34:32.709Z,12.10
2023-04-14T09:37:18.236Z,12.20
2023-04-14T09:40:03.506Z,12.30
2023-04-14T09:42:48.973Z,12.40
2023-04-14T09:45:45.084Z,12.70
2023-04-14T09:48:30.677Z,12.90
2023-04-14T09:51:16.334Z,13.20
2023-04-14T09:54:03.547Z,13.30
2023-04-14T09:56:49.124Z,13.40
2023-04-14T09:59:37.922Z,13.40
2023-04-14T10:02:23.638Z,13.40
2023-04-14T10:05:09.834Z,13.50
2023-04-14T10:07:56.082Z,13.50
2023-04-14T10:10:41.846Z,13.60
2023-04-14T10:13:28.131Z,13.80
2023-04-14T10:16:14.866Z,13.80
2023-04-14T10:19:00.944Z,13.80
2023-04-14T10:21:47.080Z,13.90
2023-04-14T10:24:34.177Z,13.90
2023-04-14T10:27:20.450Z,14.00
2023-04-14T10:30:08.748Z,14.20
2023-04-14T10:32:54.296Z,14.30
2023-04-14T10:35:43.196Z,14.50
2023-04-14T10:39:05.456Z,14.60
2023-04-14T10:41:53.934Z,14.90
2023-04-14T10:44:40.176Z,15.00
2023-04-14T10:47:26.121Z,15.30
2023-04-14T10:50:16.218Z,15.80
2023-04-14T10:53:07.166Z,16.10
2023-04-14T10:55:55.789Z,16.20
2023-04-14T10:58:54.256Z,16.40
2023-04-14T11:01:41.569Z,16.70
2023-04-14T11:04:26.834Z,16.80
2023-04-14T11:07:21.043Z,16.90
2023-04-14T11:10:24.693Z,17.10
2023-04-14T11:13:12.179Z,17.20
2023-04-14T11:16:05.859Z,17.60
2023-04-14T11:18:52.088Z,18.00
2023-04-14T11:21:53.569Z,18.10
2023-04-14T11:24:41.351Z,18.10
2023-04-14T11:27:26.963Z,18.30
2023-04-14T11:30:16.499Z,18.80
2023-04-14T11:33:02.550Z,19.30
2023-04-14T11:35:48.004Z,19.90
2023-04-14T11:38:40.207Z,20.40
2023-04-14T11:41:25.994Z,20.60
2023-04-14T11:44:19.429Z,21.30
2023-04-14T11:47:05.211Z,22.00
2023-04-14T11:49:50.766Z,22.80
2023-04-14T11:52:36.431Z,22.50
2023-04-14T11:55:25.049Z,22.50
2023-04-14T11:58:10.828Z,22.10
2023-04-14T12:00:59.771Z,21.80
2023-04-14T12:03:49.610Z,21.70
2023-04-14T12:06:39.494Z,21.40
2023-04-14T12:09:30.220Z,20.70
2023-04-14T12:12:17.595Z,21.00
2023-04-14T12:15:05.485Z,22.50
2023-04-14T12:17:51.046Z,22.80
2023-04-14T12:20:47.475Z,22.60
2023-04-14T12:23:39.736Z,22.20
2023-04-14T12:26:26.038Z,22.00
2023-04-14T12:29:14.578Z,23.10
2023-04-14T12:32:01.183Z,23.20
2023-04-14T12:34:55.509Z,23.00
2023-04-14T12:37:48.475Z,22.80
2023-04-14T12:40:39.210Z,22.50
2023-04-14T12:43:33.667Z,22.40
2023-04-14T12:46:26.533Z,23.90
2023-04-14T12:49:33.997Z,25.90
2023-04-14T12:52:39.529Z,26.00
2023-04-14T12:55:25.657Z,27.00
2023-04-14T12:58:13.351Z,28.30
2023-04-14T13:00:59.134Z,29.20
2023-04-14T13:03:46.501Z,29.60
2023-04-14T13:06:32.659Z,29.60
2023-04-14T13:09:17.867Z,29.70
2023-04-14T13:12:03.420Z,30.80
2023-04-14T13:14:48.937Z,31.30
2023-04-14T13:17:34.797Z,32.30
2023-04-14T13:20:20.835Z,32.70
2023-04-14T13:23:06.608Z,33.70
2023-04-14T13:25:52.256Z,34.70
2023-04-14T13:28:41.318Z,35.50
2023-04-14T13:31:26.855Z,36.80
2023-04-14T13:34:12.236Z,37.30
2023-04-14T13:36:57.815Z,38.20
2023-04-14T13:39:43.406Z,39.10
2023-04-14T13:42:29.042Z,39.30
2023-04-14T13:45:14.640Z,38.90
2023-04-14T13:48:00.492Z,37.80
2023-04-14T13:50:45.733Z,35.80
2023-04-14T13:53:31.530Z,34.20
2023-04-14T13:56:17.200Z,32.60
2023-04-14T13:59:02.782Z,31.10
2023-04-14T14:01:48.330Z,30.90
2023-04-14T14:04:37.093Z,32.20
2023-04-14T14:07:26.152Z,34.40
2023-04-14T14:10:12.251Z,35.30
2023-04-14T14:12:57.870Z,34.00
2023-04-14T14:15:43.215Z,33.60
2023-04-14T14:18:28.802Z,34.20
2023-04-14T14:21:14.112Z,34.20
2023-04-14T14:24:01.841Z,35.60
2023-04-14T14:26:47.395Z,36.60
2023-04-14T14:29:35.096Z,36.90
2023-04-14T14:32:20.295Z,36.50
2023-04-14T14:35:06.330Z,37.40
2023-04-14T14:37:53.196Z,36.20
2023-04-14T14:40:38.539Z,35.00
2023-04-14T14:43:24.319Z,35.10
2023-04-14T14:46:09.816Z,35.80
2023-04-14T14:48:55.396Z,36.90
2023-04-14T14:51:40.472Z,37.70
2023-04-14T14:54:25.868Z,37.90
2023-04-14T14:57:11.493Z,36.60
2023-04-14T14:59:57.401Z,37.70
2023-04-14T15:02:43.161Z,37.00
2023-04-14T15:05:28.608Z,37.20
2023-04-14T15:08:14.597Z,38.10
2023-04-14T15:10:59.579Z,38.30
2023-04-14T15:13:45.489Z,36.40
2023-04-14T15:16:31.458Z,34.20
2023-04-14T15:19:17.350Z,32.60
2023-04-14T15:22:05.935Z,31.20
2023-04-14T15:24:51.815Z,30.60
2023-04-14T15:27:37.346Z,32.40
2023-04-14T15:30:23.723Z,34.30
2023-04-14T15:33:09.391Z,36.30
2023-04-14T15:35:55.192Z,37.70
2023-04-14T15:38:44.779Z,38.90
2023-04-14T15:41:30.360Z,39.40
2023-04-14T15:44:15.840Z,37.90
2023-04-14T15:47:02.441Z,37.50
2023-04-14T15:49:49.914Z,38.20
2023-04-14T15:52:38.584Z,38.60
2023-04-14T15:55:23.746Z,39.10
2023-04-14T15:58:15.158Z,37.00
2023-04-14T16:01:00.759Z,36.30
2023-04-14T16:03:46.333Z,37.30
2023-04-14T16:06:31.790Z,37.70
2023-04-14T16:09:17.181Z,36.10
2023-04-14T16:12:02.887Z,36.60
2023-04-14T16:14:54.296Z,37.20
2023-04-14T16:17:40.315Z,35.90
2023-04-14T16:20:25.722Z,35.90
2023-04-14T16:23:12.090Z,36.80
2023-04-14T16:25:59.596Z,37.70
2023-04-14T16:28:45.111Z,38.50
2023-04-14T16:31:31.592Z,39.00
2023-04-14T16:34:18.424Z,39.20
2023-04-14T16:37:03.827Z,38.00
2023-04-14T16:39:52.847Z,35.90
2023-04-14T16:42:42.949Z,33.30
2023-04-14T16:45:31.252Z,31.70
2023-04-14T16:48:17.633Z,30.20
2023-04-14T16:51:08.518Z,28.80
2023-04-14T16:53:55.327Z,27.70
2023-04-14T16:56:41.100Z,26.70
2023-04-14T16:59:27.281Z,25.70
2023-04-14T17:02:13.083Z,24.90
2023-04-14T17:05:01.585Z,24.30
2023-04-14T17:07:47.893Z,23.80
2023-04-14T17:10:33.369Z,23.20
2023-04-14T17:13:19.070Z,22.80
2023-04-14T17:16:08.944Z,22.40
2023-04-14T17:19:01.260Z,22.00
2023-04-14T17:21:49.523Z,21.70
2023-04-14T17:24:35.127Z,21.40
2023-04-14T17:27:20.672Z,21.20
2023-04-14T17:30:09.481Z,21.00
2023-04-14T17:32:56.907Z,20.80
2023-04-14T17:35:42.628Z,20.50
2023-04-14T17:38:30.809Z,20.20
2023-04-14T17:41:16.202Z,19.80
2023-04-14T17:44:02.112Z,19.40
2023-04-14T17:46:47.617Z,19.20
2023-04-14T17:49:34.262Z,19.00
2023-04-14T17:52:35.348Z,18.80
2023-04-14T17:55:21.562Z,18.50
2023-04-14T17:58:10.201Z,18.20
2023-04-14T18:00:55.740Z,18.00
2023-04-14T18:03:41.382Z,17.80
2023-04-14T18:06:26.989Z,17.60
2023-04-14T18:09:15.952Z,17.40
2023-04-14T18:12:01.380Z,17.30
2023-04-14T18:14:46.940Z,17.00
2023-04-14T18:17:40.510Z,16.90
2023-04-14T18:20:26.555Z,16.70
2023-04-14T18:23:12.585Z,16.40
2023-04-14T18:28:53.462Z,16.00
2023-04-14T18:31:39.773Z,15.70
2023-04-14T18:34:25.165Z,15.50
2023-04-14T18:37:11.004Z,15.30
2023-04-14T18:39:56.664Z,15.10
2023-04-14T18:42:42.364Z,14.80
2023-04-14T18:45:27.710Z,14.70
2023-04-14T18:48:14.296Z,14.50
2023-04-14T18:51:02.521Z,14.20
2023-04-14T18:53:48.635Z,14.10
2023-04-14T18:56:34.110Z,13.90
2023-04-14T18:59:20.103Z,13.70
2023-04-14T19:02:05.409Z,13.60
2023-04-14T19:04:50.885Z,13.40
2023-04-14T19:07:36.496Z,13.30
2023-04-14T19:10:22.109Z,13.20
2023-04-14T19:13:07.646Z,13.00
2023-04-14T19:16:02.675Z,12.90
2023-04-14T19:18:47.872Z,12.80
2023-04-14T19:21:33.380Z,12.60
2023-04-14T19:24:19.901Z,12.60
2023-04-14T19:27:08.774Z,12.50
2023-04-14T19:29:54.147Z,12.40
2023-04-14T19:32:41.407Z,12.40
2023-04-14T19:35:27.664Z,12.30
2023-04-14T19:38:19.530Z,12.30
2023-04-14T19:41:04.965Z,12.30
2023-04-14T19:43:52.159Z,12.20
2023-04-14T19:46:37.693Z,12.20
2023-04-14T19:49:23.322Z,12.20
2023-04-14T19:52:09.245Z,12.20
2023-04-14T19:54:55.316Z,12.20
2023-04-14T19:57:40.840Z,12.10
2023-04-14T20:00:26.014Z,12.10
2023-04-14T20:03:12.039Z,12.20
2023-04-14T20:05:57.709Z,12.20
2023-04-14T20:08:44.826Z,12.20
2023-04-14T20:11:30.886Z,12.30
2023-04-14T20:14:16.500Z,12.30
2023-04-14T20:17:02.182Z,12.30
2023-04-14T20:19:47.528Z,12.30
2023-04-14T20:22:34.053Z,12.30
2023-04-14T20:25:19.739Z,12.30
2023-04-14T20:28:09.151Z,12.30
2023-04-14T20:30:55.621Z,12.30
2023-04-14T20:33:41.355Z,12.40
2023-04-14T20:36:27.030Z,12.40
2023-04-14T20:39:12.548Z,12.40
2023-04-14T20:41:57.969Z,12.40
2023-04-14T20:44:43.855Z,12.40
2023-04-14T20:47:29.524Z,12.50
2023-04-14T20:50:17.525Z,12.50
2023-04-14T20:53:02.941Z,12.50
2023-04-14T20:55:48.911Z,12.50
2023-04-14T20:58:34.613Z,12.50
2023-04-14T21:01:20.456Z,12.40
2023-04-14T21:04:05.880Z,12.50
2023-04-14T21:06:52.707Z,12.40
2023-04-14T21:09:37.974Z,12.40
2023-04-14T21:12:24.061Z,12.30
2023-04-14T21:15:48.127Z,12.30
2023-04-14T21:18:16.461Z,12.20
2023-04-14T21:21:02.227Z,12.20
2023-04-14T21:23:47.652Z,12.10
2023-04-14T21:26:33.036Z,12.10
2023-04-14T21:29:21.943Z,12.10
2023-04-14T21:32:07.528Z,12.00
2023-04-14T21:34:53.035Z,12.00
2023-04-14T21:37:38.592Z,12.00
2023-04-14T21:40:24.260Z,12.00
2023-04-14T21:43:09.631Z,12.00
2023-04-14T21:45:55.298Z,12.00
2023-04-14T21:48:44.867Z,12.00
2023-04-14T21:51:30.389Z,12.10
2023-04-14T21:54:18.712Z,12.00
2023-04-14T21:57:04.504Z,12.00
2023-04-14T21:59:50.270Z,12.00
2023-04-14T22:02:35.736Z,12.00
2023-04-14T22:05:21.317Z,12.00
2023-04-14T22:08:06.555Z,11.90
2023-04-14T22:10:52.991Z,11.80
2023-04-14T22:13:38.584Z,11.80
2023-04-14T22:16:23.876Z,11.80
2023-04-14T22:19:10.523Z,11.70
2023-04-14T22:21:55.897Z,11.70
2023-04-14T22:24:40.964Z,11.60
2023-04-14T22:27:26.651Z,11.50
2023-04-14T22:30:12.428Z,11.50
2023-04-14T22:33:01.152Z,11.40
2023-04-14T22:35:46.565Z,11.40
2023-04-14T22:38:33.763Z,11.30
2023-04-14T22:41:19.200Z,11.30
2023-04-14T22:44:06.526Z,11.20
2023-04-14T22:46:51.876Z,11.20
2023-04-14T22:49:40.514Z,11.10
2023-04-14T22:52:27.936Z,11.10
2023-04-14T22:55:13.605Z,11.10
2023-04-14T22:57:59.058Z,11.10
2023-04-14T23:00:46.103Z,11.10
2023-04-14T23:03:31.698Z,11.10
2023-04-14T23:06:19.754Z,11.10
2023-04-14T23:09:05.671Z,11.00
2023-04-14T23:11:50.818Z,11.00
2023-04-14T23:14:36.580Z,11.00
2023-04-14T23:17:22.174Z,11.00
2023-04-14T23:20:11.236Z,11.00
2023-04-14T23:22:56.412Z,11.00
2023-04-14T23:25:42.214Z,10.90
2023-04-14T23:28:30.675Z,10.90
2023-04-14T23:31:17.405Z,10.90
2023-04-14T23:34:03.024Z,10.90
2023-04-14T23:36:48.491Z,10.80
2023-04-14T23:39:34.536Z,10.80
2023-04-14T23:42:20.284Z,10.70
2023-04-14T23:45:07.321Z,10.70
2023-04-14T23:47:54.066Z,10.70
2023-04-14T23:51:00.792Z,10.70
2023-04-14T23:53:44.987Z,10.70
2023-04-14T23:56:31.796Z,10.60
2023-04-14T23:59:17.079Z,10.60
